Time;durP1;ratioP1;P1;durP2;ratioP2;P2;SDS_P1;SDS_P2;PMS_P1;PMS_P2;Temp;Humidity;BMP_temperature;BMP_pressure;BME280_temperature;BME280_humidity;BME280_pressure;Samples;Min_cycle;Max_cycle;Signal;HPM_P1;HPM_P2
2022/01/16 00:04:37;;;;;;;66.22;30.15;;;3.00;99.90;;;;;;5113006;28;20088;-72
2022/01/16 00:07:04;;;;;;;70.43;31.13;;;2.90;99.90;;;;;;5113799;28;20055;-72
2022/01/16 00:09:31;;;;;;;75.63;32.77;;;2.90;99.90;;;;;;5112755;28;20089;-72
2022/01/16 00:12:00;;;;;;;74.03;31.50;;;2.90;99.90;;;;;;5113689;28;20030;-72
2022/01/16 00:14:26;;;;;;;72.30;30.40;;;2.80;99.90;;;;;;5112479;28;20023;-72
2022/01/16 00:16:52;;;;;;;66.00;28.60;;;2.90;99.90;;;;;;5113740;28;20024;-72
2022/01/16 00:19:18;;;;;;;80.10;34.37;;;2.90;99.90;;;;;;5113518;28;20027;-72
2022/01/16 00:21:44;;;;;;;69.70;32.57;;;2.90;99.90;;;;;;5078718;28;20034;-72
2022/01/16 00:24:10;;;;;;;74.10;33.30;;;2.90;99.90;;;;;;5095159;28;20507;-72
2022/01/16 00:26:37;;;;;;;79.37;35.27;;;2.90;99.90;;;;;;5113396;28;20032;-72
2022/01/16 00:29:07;;;;;;;84.83;36.23;;;2.90;99.90;;;;;;5112432;28;20030;-71
2022/01/16 00:31:33;;;;;;;82.07;35.03;;;2.90;99.90;;;;;;5112271;28;20024;-71
2022/01/16 00:33:59;;;;;;;93.07;37.57;;;2.90;99.90;;;;;;5112066;28;20032;-72
2022/01/16 00:36:25;;;;;;;87.47;37.30;;;2.90;99.90;;;;;;5112247;28;20035;-72
2022/01/16 00:38:53;;;;;;;88.67;37.60;;;2.90;99.90;;;;;;5112306;28;20053;-72
2022/01/16 00:41:20;;;;;;;81.40;37.40;;;2.90;99.90;;;;;;5112002;28;20446;-72
2022/01/16 00:43:47;;;;;;;92.67;38.63;;;3.00;99.90;;;;;;5112475;28;20024;-72
2022/01/16 00:46:13;;;;;;;84.47;37.37;;;2.90;99.90;;;;;;5094969;28;20096;-72
2022/01/16 00:48:38;;;;;;;84.80;36.33;;;2.90;99.90;;;;;;5095193;28;20406;-71
2022/01/16 00:51:04;;;;;;;84.40;36.57;;;2.90;99.90;;;;;;5095247;28;20020;-72
2022/01/16 00:53:30;;;;;;;84.33;38.50;;;3.00;99.90;;;;;;5112386;28;20030;-72
2022/01/16 00:55:55;;;;;;;82.43;36.17;;;3.00;99.90;;;;;;5116796;28;20036;-72
2022/01/16 00:58:21;;;;;;;82.00;35.73;;;3.00;99.90;;;;;;5116266;28;20118;-71
2022/01/16 01:00:47;;;;;;;79.03;33.10;;;3.00;99.90;;;;;;5115862;28;20032;-72
2022/01/16 01:03:14;;;;;;;80.07;33.90;;;2.90;99.90;;;;;;5115891;28;20058;-72
2022/01/16 01:05:41;;;;;;;82.23;34.33;;;2.90;99.90;;;;;;5099401;28;20071;-76
2022/01/16 01:08:07;;;;;;;82.70;34.47;;;2.90;99.90;;;;;;5116614;28;20117;-72
2022/01/16 01:10:36;;;;;;;73.67;35.33;;;2.90;99.90;;;;;;5116815;28;20046;-72
2022/01/16 01:13:09;;;;;;;79.53;34.63;;;2.90;99.90;;;;;;5115519;28;20026;-77
2022/01/16 01:15:42;;;;;;;76.20;31.57;;;2.80;99.90;;;;;;5099288;28;20055;-77
2022/01/16 01:18:09;;;;;;;68.45;25.98;;;2.80;99.90;;;;;;5099471;28;20036;-75
2022/01/16 01:20:36;;;;;;;70.07;32.30;;;2.70;99.90;;;;;;5115490;28;20051;-75
2022/01/16 01:23:02;;;;;;;80.10;35.07;;;2.70;99.90;;;;;;5116959;28;20019;-76
2022/01/16 01:25:27;;;;;;;77.53;33.43;;;2.70;99.90;;;;;;5116617;28;20080;-75
2022/01/16 01:27:53;;;;;;;74.40;33.23;;;2.60;99.90;;;;;;5116689;28;20023;-75
2022/01/16 01:30:23;;;;;;;70.63;32.27;;;2.70;99.90;;;;;;5117291;28;20035;-77
2022/01/16 01:32:49;;;;;;;73.10;32.87;;;2.70;99.90;;;;;;5117708;28;20011;-75
2022/01/16 01:35:18;;;;;;;70.23;31.43;;;2.70;99.90;;;;;;5099262;28;20028;-76
2022/01/16 01:37:45;;;;;;;60.37;30.57;;;2.70;99.90;;;;;;5117915;28;20030;-76
2022/01/16 01:40:14;;;;;;;66.27;30.43;;;2.70;99.90;;;;;;5117234;28;20027;-75
2022/01/16 01:42:48;;;;;;;79.23;33.80;;;2.70;99.90;;;;;;5116175;28;20031;-76
2022/01/16 01:51:08;;;;;;;70.97;30.70;;;2.70;99.90;;;;;;5117805;28;20522;-76
2022/01/16 01:53:36;;;;;;;75.73;30.13;;;2.60;99.90;;;;;;5115353;28;20464;-76
2022/01/16 01:56:04;;;;;;;77.80;33.37;;;2.60;99.90;;;;;;5115349;28;20414;-76
2022/01/16 01:58:29;;;;;;;67.83;32.27;;;2.60;99.90;;;;;;5117470;28;20035;-76
2022/01/16 02:00:55;;;;;;;74.43;30.23;;;2.60;99.90;;;;;;5115421;28;20123;-76
2022/01/16 02:03:42;;;;;;;71.10;29.90;;;2.60;99.90;;;;;;5115083;28;20403;-75
2022/01/16 02:06:20;;;;;;;83.40;32.90;;;2.60;99.90;;;;;;5087000;28;20122;-76
2022/01/16 02:08:50;;;;;;;63.80;30.13;;;2.60;99.90;;;;;;5114910;28;20491;-76
2022/01/16 02:11:17;;;;;;;71.27;32.37;;;2.60;99.90;;;;;;5115654;28;20034;-76
2022/01/16 02:13:53;;;;;;;62.57;29.93;;;2.60;99.90;;;;;;5114381;28;20020;-76
2022/01/16 02:35:25;;;;;;;63.63;29.43;;;2.60;99.90;;;;;;5115561;28;20042;-76
2022/01/16 02:37:51;;;;;;;70.53;31.73;;;2.60;99.90;;;;;;5115372;28;20023;-77
2022/01/16 02:40:21;;;;;;;73.87;30.43;;;2.70;99.90;;;;;;5096791;28;20444;-76
2022/01/16 02:42:50;;;;;;;65.27;30.20;;;2.70;99.90;;;;;;5115036;28;20020;-77
2022/01/16 02:45:27;;;;;;;73.10;30.60;;;2.70;99.90;;;;;;5113647;28;20027;-77
2022/01/16 02:47:55;;;;;;;69.17;29.77;;;2.70;99.90;;;;;;5113863;28;20031;-75
2022/01/16 02:50:21;;;;;;;66.33;28.73;;;2.70;99.90;;;;;;5097738;28;20020;-75
2022/01/16 02:52:47;;;;;;;79.97;32.73;;;2.70;99.90;;;;;;5115449;28;20028;-76
2022/01/16 02:55:15;;;;;;;81.03;33.27;;;2.80;99.90;;;;;;5114722;28;20019;-76
2022/01/16 02:57:41;;;;;;;75.40;32.27;;;2.70;99.90;;;;;;5098678;28;20035;-76
2022/01/16 03:00:08;;;;;;;73.37;32.20;;;2.80;99.90;;;;;;5114244;28;20475;-76
2022/01/16 03:02:34;;;;;;;75.57;32.07;;;2.80;99.90;;;;;;5097262;28;20034;-76
2022/01/16 03:05:00;;;;;;;80.83;31.20;;;2.80;99.90;;;;;;5114455;28;20024;-76
2022/01/16 03:07:26;;;;;;;73.80;31.10;;;2.80;99.90;;;;;;5114064;28;20039;-76
2022/01/16 03:12:53;;;;;;;74.13;32.33;;;2.70;99.90;;;;;;5114741;28;20490;-76
2022/01/16 03:15:19;;;;;;;70.77;31.90;;;2.70;99.90;;;;;;5114696;28;20031;-76
2022/01/16 03:23:09;;;;;;;68.20;31.37;;;2.70;99.90;;;;;;5114882;28;20042;-76
2022/01/16 03:25:35;;;;;;;73.07;32.30;;;2.80;99.90;;;;;;5114236;28;20110;-77
2022/01/16 03:28:00;;;;;;;82.60;31.00;;;2.70;99.90;;;;;;5114474;28;20036;-76
2022/01/16 03:30:26;;;;;;;82.93;33.07;;;2.80;99.90;;;;;;5114318;28;20024;-76
2022/01/16 03:32:52;;;;;;;74.60;29.40;;;2.80;99.90;;;;;;5113184;28;20089;-76
2022/01/16 03:35:18;;;;;;;74.93;31.17;;;2.80;99.90;;;;;;5114272;28;20051;-77
2022/01/16 03:37:43;;;;;;;77.67;29.10;;;2.80;99.90;;;;;;5114343;28;20103;-77
2022/01/16 03:40:11;;;;;;;83.10;28.17;;;2.80;99.90;;;;;;5112916;28;20066;-76
2022/01/16 03:42:38;;;;;;;72.77;26.77;;;2.80;99.90;;;;;;5112993;28;20043;-76
2022/01/16 03:45:05;;;;;;;65.80;28.53;;;2.90;99.90;;;;;;5112672;28;20032;-76
2022/01/16 03:47:30;;;;;;;80.87;30.27;;;2.90;99.90;;;;;;5113835;28;20027;-72
2022/01/16 03:49:56;;;;;;;78.70;30.93;;;2.90;99.90;;;;;;5095892;28;20042;-72
2022/01/16 03:52:22;;;;;;;64.97;28.30;;;2.90;99.90;;;;;;5112629;28;20023;-72
2022/01/16 03:54:48;;;;;;;78.57;32.10;;;3.00;99.90;;;;;;5112469;28;20039;-72
2022/01/16 03:57:13;;;;;;;78.90;31.27;;;2.90;99.90;;;;;;5113871;28;20102;-72
2022/01/16 03:59:39;;;;;;;79.63;31.17;;;3.00;99.90;;;;;;5112763;28;20032;-72
2022/01/16 04:02:05;;;;;;;82.47;30.77;;;3.00;99.90;;;;;;5112676;28;20028;-72
2022/01/16 04:04:31;;;;;;;85.33;32.10;;;3.00;99.90;;;;;;5113918;28;20034;-72
2022/01/16 04:06:57;;;;;;;76.70;29.93;;;3.00;99.90;;;;;;5112460;28;20040;-72
2022/01/16 04:09:23;;;;;;;81.30;29.77;;;3.00;99.90;;;;;;5113727;28;20023;-72
2022/01/16 04:11:54;;;;;;;74.90;28.93;;;3.00;99.90;;;;;;5112492;28;20031;-72
2022/01/16 04:14:24;;;;;;;76.87;30.13;;;3.00;99.90;;;;;;5112735;28;20039;-72
2022/01/16 04:16:52;;;;;;;91.50;35.03;;;3.10;99.90;;;;;;5113849;28;20034;-72
2022/01/16 04:19:18;;;;;;;88.20;34.27;;;3.10;99.90;;;;;;5113794;28;20468;-72
2022/01/16 04:21:44;;;;;;;80.30;32.23;;;3.10;99.90;;;;;;5112228;28;20032;-72
2022/01/16 04:24:10;;;;;;;80.47;32.87;;;3.10;99.90;;;;;;5113554;28;20494;-72
2022/01/16 04:26:35;;;;;;;81.10;33.13;;;3.10;99.90;;;;;;5095489;28;20429;-72
2022/01/16 04:29:01;;;;;;;86.10;32.33;;;3.10;99.90;;;;;;5096377;28;20479;-72
2022/01/16 04:31:27;;;;;;;82.83;32.00;;;3.10;99.90;;;;;;5117712;28;20028;-73
2022/01/16 04:33:52;;;;;;;79.10;31.23;;;3.10;99.90;;;;;;5117927;28;20027;-72
2022/01/16 04:36:18;;;;;;;84.87;34.20;;;3.10;99.90;;;;;;5099198;28;20027;-72
2022/01/16 04:38:46;;;;;;;74.33;31.43;;;3.10;99.90;;;;;;5117723;28;20036;-72
2022/01/16 04:43:57;;;;;;;74.10;32.00;;;3.20;99.90;;;;;;5116891;28;20104;-72
2022/01/16 04:46:29;;;;;;;76.83;34.73;;;3.20;99.90;;;;;;5117566;28;20027;-72
2022/01/16 04:48:56;;;;;;;78.60;33.33;;;3.20;99.90;;;;;;5116416;28;20053;-72
2022/01/16 04:51:23;;;;;;;78.40;34.20;;;3.20;99.90;;;;;;5117392;28;20034;-72
2022/01/16 04:53:49;;;;;;;75.10;33.23;;;3.20;99.90;;;;;;5116081;28;20332;-72
2022/01/16 04:56:14;;;;;;;70.43;31.33;;;3.20;99.90;;;;;;5115927;28;20036;-72
2022/01/16 04:58:41;;;;;;;75.70;32.53;;;3.20;99.90;;;;;;5116159;28;20032;-72
2022/01/16 05:01:08;;;;;;;88.00;34.07;;;3.30;99.90;;;;;;5117302;28;20051;-72
2022/01/16 05:03:34;;;;;;;75.90;34.07;;;3.30;99.90;;;;;;5115885;28;20115;-72
2022/01/16 05:06:01;;;;;;;77.67;34.87;;;3.30;99.90;;;;;;5116916;28;20039;-72
2022/01/16 05:08:28;;;;;;;83.57;36.97;;;3.30;99.90;;;;;;5115761;28;20083;-72
2022/01/16 05:10:56;;;;;;;72.33;33.03;;;3.30;99.90;;;;;;5115961;28;20031;-72
2022/01/16 05:18:36;;;;;;;80.80;36.63;;;3.30;99.90;;;;;;5118392;28;20491;-72
2022/01/16 05:21:02;;;;;;;83.03;36.60;;;3.30;99.90;;;;;;5115742;28;20134;-72
2022/01/16 05:23:28;;;;;;;91.20;40.73;;;3.30;99.90;;;;;;5116603;28;20475;-72
2022/01/16 05:25:54;;;;;;;86.13;39.80;;;3.30;99.90;;;;;;5116840;28;20062;-72
2022/01/16 05:28:21;;;;;;;83.57;39.10;;;3.30;99.90;;;;;;5116661;28;20520;-73
2022/01/16 05:30:47;;;;;;;86.20;38.77;;;3.30;99.90;;;;;;5115316;28;20031;-72
2022/01/16 05:33:12;;;;;;;86.13;38.47;;;3.30;99.90;;;;;;5116724;28;20031;-72
2022/01/16 05:35:38;;;;;;;82.20;37.60;;;3.30;99.90;;;;;;5116752;28;20454;-72
2022/01/16 05:38:04;;;;;;;84.00;39.27;;;3.30;99.90;;;;;;5116435;28;20027;-76
2022/01/16 05:40:30;;;;;;;85.90;39.67;;;3.40;99.90;;;;;;5115588;28;20024;-77
2022/01/16 05:42:55;;;;;;;86.70;38.60;;;3.40;99.90;;;;;;5115286;28;20028;-77
2022/01/16 05:45:21;;;;;;;77.53;36.60;;;3.40;99.90;;;;;;5102300;28;20087;-76
2022/01/16 05:47:47;;;;;;;79.93;39.43;;;3.40;99.90;;;;;;5114789;28;20028;-77
2022/01/16 05:50:13;;;;;;;90.33;41.33;;;3.40;99.90;;;;;;5097835;28;20472;-76
2022/01/16 05:52:40;;;;;;;85.60;39.37;;;3.40;99.90;;;;;;5116111;28;20030;-72
2022/01/16 05:55:06;;;;;;;92.07;40.53;;;3.40;99.90;;;;;;5111615;28;20115;-72
2022/01/16 05:57:32;;;;;;;89.10;40.80;;;3.40;99.90;;;;;;5112720;28;20032;-72
2022/01/16 05:59:58;;;;;;;92.93;44.07;;;3.40;99.90;;;;;;5115307;28;20038;-72
2022/01/16 06:02:25;;;;;;;83.80;39.80;;;3.40;99.90;;;;;;5114893;28;20402;-72
2022/01/16 06:04:51;;;;;;;95.73;42.10;;;3.40;99.90;;;;;;5114803;28;20036;-72
2022/01/16 06:07:17;;;;;;;89.80;42.40;;;3.40;99.90;;;;;;5114222;28;20589;-72
2022/01/16 06:09:43;;;;;;;86.27;41.63;;;3.40;99.90;;;;;;5115648;28;20031;-73
2022/01/16 06:12:09;;;;;;;82.03;39.57;;;3.40;99.90;;;;;;5093866;28;20024;-72
2022/01/16 06:14:34;;;;;;;84.70;38.83;;;3.50;99.90;;;;;;5096994;28;20106;-72
2022/01/16 06:17:00;;;;;;;84.20;40.30;;;3.40;99.90;;;;;;5115195;28;20034;-72
2022/01/16 06:19:26;;;;;;;89.30;42.47;;;3.50;99.90;;;;;;5090654;28;20040;-72
2022/01/16 06:21:51;;;;;;;88.10;41.37;;;3.50;99.90;;;;;;5114647;28;20110;-72
2022/01/16 06:24:17;;;;;;;90.23;42.70;;;3.50;99.90;;;;;;5114355;28;20025;-71
2022/01/16 06:26:43;;;;;;;88.27;43.57;;;3.50;99.90;;;;;;5109545;28;20039;-73
2022/01/16 06:29:09;;;;;;;93.67;42.37;;;3.40;99.90;;;;;;5114860;28;20028;-72
2022/01/16 06:31:35;;;;;;;96.43;43.00;;;3.50;99.90;;;;;;5114875;28;20124;-72
2022/01/16 06:34:03;;;;;;;90.77;42.47;;;3.60;99.90;;;;;;5118872;27;20468;-73
2022/01/16 06:36:29;;;;;;;95.63;45.53;;;3.50;99.90;;;;;;5077211;28;20395;-72
2022/01/16 06:38:56;;;;;;;93.67;42.73;;;3.50;99.90;;;;;;5113492;28;20035;-77
2022/01/16 06:41:22;;;;;;;93.90;43.67;;;3.40;99.90;;;;;;5114940;28;20534;-77
2022/01/16 06:43:47;;;;;;;99.77;48.67;;;3.50;99.90;;;;;;5115057;28;20028;-77
2022/01/16 06:46:13;;;;;;;97.00;47.07;;;3.50;99.90;;;;;;5092882;28;20078;-76
2022/01/16 06:48:40;;;;;;;86.83;42.50;;;3.50;99.90;;;;;;5115041;28;20039;-78
2022/01/16 06:51:07;;;;;;;88.30;41.50;;;3.50;99.90;;;;;;5113121;28;20045;-77
2022/01/16 06:53:33;;;;;;;83.03;41.00;;;3.50;99.90;;;;;;5114319;28;20371;-77
2022/01/16 06:55:58;;;;;;;90.73;44.40;;;3.50;99.90;;;;;;5112969;28;20399;-76
2022/01/16 06:58:24;;;;;;;82.60;42.37;;;3.50;99.90;;;;;;5100932;28;20024;-77
2022/01/16 07:00:50;;;;;;;87.57;42.77;;;3.50;99.90;;;;;;5104036;28;20052;-76
2022/01/16 07:03:16;;;;;;;88.13;43.27;;;3.50;99.90;;;;;;5113655;28;20050;-76
2022/01/16 07:05:42;;;;;;;79.07;40.97;;;3.50;99.90;;;;;;5096350;28;20480;-77
2022/01/16 07:08:08;;;;;;;82.73;42.17;;;3.50;99.90;;;;;;5113252;28;20035;-77
2022/01/16 07:10:34;;;;;;;90.93;44.10;;;3.60;99.90;;;;;;5104264;28;20100;-76
2022/01/16 07:12:59;;;;;;;83.43;43.57;;;3.60;99.90;;;;;;5097029;28;20027;-77
2022/01/16 07:15:25;;;;;;;84.37;44.33;;;3.50;99.90;;;;;;5113205;28;20039;-76
2022/01/16 07:17:51;;;;;;;89.67;43.43;;;3.60;99.90;;;;;;5113321;28;20032;-76
2022/01/16 07:20:17;;;;;;;89.13;44.87;;;3.60;99.90;;;;;;5113291;28;20156;-76
2022/01/16 07:22:46;;;;;;;76.20;39.83;;;3.60;99.90;;;;;;5114364;28;20077;-77
2022/01/16 07:25:13;;;;;;;73.40;39.87;;;3.60;99.90;;;;;;5114610;28;20039;-77
2022/01/16 07:27:39;;;;;;;73.33;40.23;;;3.60;99.90;;;;;;5112740;28;20042;-77
2022/01/16 07:30:06;;;;;;;82.07;43.47;;;3.60;99.90;;;;;;5096588;28;20028;-77
2022/01/16 07:32:32;;;;;;;74.33;39.20;;;3.60;99.90;;;;;;5112713;28;20111;-76
2022/01/16 07:34:57;;;;;;;84.57;42.37;;;3.60;99.90;;;;;;5113003;28;20051;-76
2022/01/16 07:37:23;;;;;;;75.97;39.27;;;3.70;99.90;;;;;;5114264;27;20030;-76
2022/01/16 07:39:49;;;;;;;78.83;39.70;;;3.70;99.90;;;;;;5112886;28;20031;-76
2022/01/16 07:42:15;;;;;;;79.00;40.30;;;3.70;99.90;;;;;;5112626;28;20411;-76
2022/01/16 07:44:40;;;;;;;80.27;41.33;;;3.70;99.90;;;;;;5112953;28;20035;-76
2022/01/16 07:47:06;;;;;;;79.87;42.13;;;3.70;99.90;;;;;;5095532;28;20076;-77
2022/01/16 07:49:32;;;;;;;80.17;40.97;;;3.70;99.90;;;;;;5113977;28;20062;-77
2022/01/16 07:51:58;;;;;;;76.07;41.07;;;3.70;99.90;;;;;;5114046;28;20107;-76
2022/01/16 07:54:23;;;;;;;74.70;39.53;;;3.80;99.90;;;;;;5112590;28;20088;-76
2022/01/16 07:56:49;;;;;;;75.07;39.93;;;3.80;99.90;;;;;;5113234;28;20062;-76
2022/01/16 07:59:16;;;;;;;68.70;39.60;;;3.80;99.90;;;;;;5112583;28;20383;-76
2022/01/16 08:01:42;;;;;;;72.40;40.83;;;3.80;99.90;;;;;;5112575;28;20028;-77
2022/01/16 08:04:08;;;;;;;67.83;39.83;;;3.80;99.90;;;;;;5095070;28;20476;-77
2022/01/16 08:06:34;;;;;;;67.40;38.87;;;3.90;99.90;;;;;;5112319;28;20043;-77
2022/01/16 08:08:59;;;;;;;71.10;38.50;;;3.90;99.90;;;;;;5095394;28;20027;-77
2022/01/16 08:11:25;;;;;;;64.10;36.60;;;3.90;99.90;;;;;;5114019;28;20019;-77
2022/01/16 08:13:51;;;;;;;67.83;38.00;;;3.90;99.90;;;;;;5112580;28;20024;-76
2022/01/16 08:16:17;;;;;;;65.37;36.40;;;3.90;99.90;;;;;;5112374;28;20119;-76
2022/01/16 08:18:43;;;;;;;69.40;36.93;;;4.00;99.90;;;;;;5112554;28;20035;-72
2022/01/16 08:21:08;;;;;;;68.33;37.10;;;4.00;99.90;;;;;;5112356;28;20035;-72
2022/01/16 08:23:34;;;;;;;62.90;34.53;;;4.10;99.90;;;;;;5113413;28;20495;-73
2022/01/16 08:26:00;;;;;;;69.17;38.50;;;4.10;99.90;;;;;;5112168;28;20412;-72
2022/01/16 08:28:26;;;;;;;62.93;35.60;;;4.10;99.90;;;;;;5113451;28;20034;-75
2022/01/16 08:30:52;;;;;;;66.20;37.83;;;4.10;99.90;;;;;;5112340;28;20028;-76
2022/01/16 08:33:17;;;;;;;74.30;39.23;;;4.20;99.90;;;;;;5112302;28;20028;-77
2022/01/16 08:35:43;;;;;;;64.03;37.10;;;4.20;99.90;;;;;;5111744;28;20476;-77
2022/01/16 08:38:09;;;;;;;66.17;38.00;;;4.20;99.90;;;;;;5113341;28;20024;-72
2022/01/16 08:40:35;;;;;;;62.43;36.70;;;4.30;99.90;;;;;;5113550;28;20028;-71
2022/01/16 08:43:08;;;;;;;58.80;34.50;;;4.30;99.90;;;;;;5110237;28;20023;-72
2022/01/16 08:45:38;;;;;;;57.45;34.55;;;4.40;99.90;;;;;;5112182;28;20023;-72
2022/01/16 08:48:04;;;;;;;57.67;32.53;;;4.50;99.90;;;;;;5112139;28;20104;-72
2022/01/16 08:50:31;;;;;;;58.27;32.70;;;4.40;99.90;;;;;;5113402;28;20153;-73
2022/01/16 08:52:57;;;;;;;60.60;35.67;;;4.50;99.90;;;;;;5112117;28;20028;-72
2022/01/16 08:55:22;;;;;;;56.30;34.30;;;4.50;99.90;;;;;;5112234;28;20020;-72
2022/01/16 08:57:48;;;;;;;56.00;34.20;;;4.60;99.90;;;;;;5113041;28;20023;-73
2022/01/16 09:00:14;;;;;;;60.67;32.87;;;4.60;99.90;;;;;;5111846;28;20032;-72
2022/01/16 09:02:39;;;;;;;57.03;33.53;;;4.70;99.90;;;;;;5111823;28;20486;-73
2022/01/16 09:05:06;;;;;;;51.87;30.60;;;4.60;99.90;;;;;;5113220;28;20480;-72
2022/01/16 09:07:32;;;;;;;61.37;34.40;;;4.70;99.90;;;;;;5112627;28;20039;-72
2022/01/16 09:09:59;;;;;;;55.47;31.20;;;4.60;99.90;;;;;;5111992;28;20127;-71
2022/01/16 09:12:25;;;;;;;49.10;30.03;;;4.70;99.90;;;;;;5111827;28;20020;-73
2022/01/16 09:14:51;;;;;;;57.27;31.23;;;4.80;99.90;;;;;;5095536;28;20125;-71
2022/01/16 09:17:17;;;;;;;56.50;32.87;;;4.80;99.90;;;;;;5117050;28;20027;-71
2022/01/16 09:19:43;;;;;;;61.97;31.87;;;4.80;99.90;;;;;;5116816;28;20027;-71
2022/01/16 09:22:08;;;;;;;56.43;31.90;;;4.90;99.90;;;;;;5081381;28;20020;-75
2022/01/16 09:24:34;;;;;;;63.67;32.37;;;4.90;99.90;;;;;;5116186;28;20480;-76
2022/01/16 09:27:00;;;;;;;61.87;32.07;;;4.90;99.90;;;;;;5116381;28;20428;-76
2022/01/16 09:29:26;;;;;;;51.10;30.30;;;5.00;99.90;;;;;;5116420;28;20024;-76
2022/01/16 09:31:52;;;;;;;51.63;30.47;;;5.00;99.90;;;;;;5116526;28;20016;-76
2022/01/16 09:34:18;;;;;;;59.23;33.13;;;5.10;99.90;;;;;;5098429;28;20337;-76
2022/01/16 09:36:44;;;;;;;56.40;33.43;;;5.10;99.90;;;;;;5111577;28;20097;-76
2022/01/16 09:39:10;;;;;;;56.37;31.70;;;5.10;99.90;;;;;;5111085;27;20491;-76
2022/01/16 09:41:36;;;;;;;60.20;31.73;;;5.20;99.90;;;;;;5116600;28;20038;-75
2022/01/16 09:44:02;;;;;;;52.70;29.30;;;5.20;99.90;;;;;;5115671;28;20447;-76
2022/01/16 09:46:27;;;;;;;58.73;32.30;;;5.20;99.90;;;;;;5116053;28;20028;-76
2022/01/16 09:48:53;;;;;;;58.77;31.90;;;5.30;99.90;;;;;;5098238;28;20062;-76
2022/01/16 09:51:19;;;;;;;57.73;32.53;;;5.30;99.90;;;;;;5114926;28;20055;-76
2022/01/16 09:53:45;;;;;;;56.80;31.23;;;5.30;99.90;;;;;;5115444;28;20028;-72
2022/01/16 09:56:11;;;;;;;57.40;30.10;;;5.30;99.90;;;;;;5097829;28;20023;-72
2022/01/16 09:58:38;;;;;;;62.50;33.03;;;5.30;99.90;;;;;;5098223;28;20058;-72
2022/01/16 10:01:05;;;;;;;60.30;32.67;;;5.40;99.90;;;;;;5115030;28;20024;-76
2022/01/16 10:03:35;;;;;;;54.07;30.33;;;5.40;99.90;;;;;;5097537;28;20395;-76
2022/01/16 10:06:10;;;;;;;59.07;32.73;;;5.40;99.90;;;;;;5115814;28;20408;-76
2022/01/16 10:08:37;;;;;;;69.47;35.97;;;5.50;99.90;;;;;;5115854;28;20040;-76
2022/01/16 10:11:18;;;;;;;63.70;34.90;;;5.40;99.90;;;;;;5115795;28;20371;-76
2022/01/16 10:13:59;;;;;;;68.37;34.93;;;5.60;99.90;;;;;;5116026;28;20020;-76
2022/01/16 10:16:45;;;;;;;70.87;34.67;;;5.50;99.90;;;;;;5115668;28;20019;-72
2022/01/16 10:19:38;;;;;;;65.07;35.43;;;5.50;99.90;;;;;;5096875;28;20403;-73
2022/01/16 10:22:09;;;;;;;70.17;36.53;;;5.50;99.90;;;;;;5112642;28;20036;-74
2022/01/16 10:24:39;;;;;;;72.53;36.67;;;5.50;99.90;;;;;;5115847;28;20144;-71
2022/01/16 10:27:07;;;;;;;72.17;36.80;;;5.50;99.90;;;;;;5114680;28;20034;-72
2022/01/16 10:29:35;;;;;;;72.40;37.50;;;5.50;99.90;;;;;;5112221;28;20124;-72
2022/01/16 10:32:21;;;;;;;72.03;36.57;;;5.50;99.90;;;;;;5097608;28;20035;-72
2022/01/16 10:34:50;;;;;;;78.87;38.60;;;5.50;99.90;;;;;;5094513;28;20035;-72
2022/01/16 10:37:22;;;;;;;74.77;36.73;;;5.50;99.90;;;;;;5092907;28;20020;-71
2022/01/16 10:39:58;;;;;;;78.83;39.97;;;5.50;99.90;;;;;;5093470;28;20024;-75
2022/01/16 10:42:26;;;;;;;74.53;37.47;;;5.50;99.90;;;;;;5098333;28;20106;-76
2022/01/16 10:45:15;;;;;;;76.63;39.03;;;5.60;99.90;;;;;;5108510;28;20039;-72
2022/01/16 10:47:51;;;;;;;83.63;40.13;;;5.50;99.90;;;;;;5127364;27;20375;-72
2022/01/16 10:50:22;;;;;;;74.83;38.87;;;5.60;99.90;;;;;;5115732;28;20558;-75
2022/01/16 10:53:00;;;;;;;79.87;39.83;;;5.60;99.90;;;;;;5116943;28;20023;-76
2022/01/16 10:56:09;;;;;;;84.57;39.97;;;5.60;99.90;;;;;;5116722;28;20129;-76
2022/01/16 10:58:35;;;;;;;83.73;39.27;;;5.70;99.90;;;;;;5111865;28;20039;-76
2022/01/16 11:01:03;;;;;;;85.87;42.27;;;5.60;99.90;;;;;;5115623;28;20016;-76
2022/01/16 11:03:44;;;;;;;86.87;43.90;;;5.70;99.90;;;;;;5113771;28;20019;-76
2022/01/16 11:06:09;;;;;;;83.07;41.23;;;5.70;99.90;;;;;;5114951;28;20111;-72
2022/01/16 11:08:36;;;;;;;92.93;44.17;;;5.60;99.90;;;;;;5113568;28;20118;-76
2022/01/16 11:11:01;;;;;;;96.43;45.40;;;5.70;99.90;;;;;;5114577;28;20020;-76
2022/01/16 11:13:30;;;;;;;87.30;44.73;;;5.70;99.90;;;;;;5113779;28;20024;-76
2022/01/16 11:16:07;;;;;;;88.37;42.93;;;5.70;99.90;;;;;;5114733;28;20027;-76
2022/01/16 11:18:37;;;;;;;92.47;43.90;;;5.70;99.90;;;;;;5113604;28;20022;-77
2022/01/16 11:26:16;;;;;;;98.60;44.80;;;5.70;99.90;;;;;;5114314;28;20051;-72
2022/01/16 11:28:42;;;;;;;87.17;41.83;;;5.70;99.90;;;;;;5112522;28;20024;-73
2022/01/16 11:31:10;;;;;;;96.33;44.70;;;5.70;99.90;;;;;;5113045;28;20027;-76
2022/01/16 11:33:38;;;;;;;98.13;43.43;;;5.70;99.90;;;;;;5114749;28;20027;-75
2022/01/16 11:36:15;;;;;;;101.77;44.30;;;5.80;99.90;;;;;;5114520;28;20102;-76
2022/01/16 11:38:45;;;;;;;97.63;44.50;;;5.70;99.90;;;;;;5113396;28;20031;-73
2022/01/16 11:41:32;;;;;;;101.53;43.80;;;5.80;99.90;;;;;;5114023;28;20433;-72
2022/01/16 11:43:58;;;;;;;97.83;46.83;;;5.80;99.90;;;;;;5112950;28;20020;-72
2022/01/16 11:46:26;;;;;;;102.07;44.83;;;5.80;99.90;;;;;;5112833;28;20031;-72
2022/01/16 11:48:55;;;;;;;93.10;43.50;;;5.80;99.90;;;;;;5114318;28;20468;-73
2022/01/16 11:51:35;;;;;;;98.97;43.27;;;5.80;99.90;;;;;;5113682;28;20024;-73
2022/01/16 11:54:01;;;;;;;100.97;44.87;;;5.80;99.90;;;;;;5112720;28;20023;-73
2022/01/16 11:59:15;;;;;;;105.93;45.33;;;5.90;99.90;;;;;;5114079;28;20084;-72
2022/01/16 12:02:09;;;;;;;101.90;43.40;;;5.80;99.90;;;;;;5117969;27;20023;-72
2022/01/16 12:04:36;;;;;;;98.63;43.10;;;5.90;99.90;;;;;;5084105;28;20042;-72
2022/01/16 12:07:13;;;;;;;91.77;40.27;;;5.90;99.90;;;;;;5112958;28;20023;-72
2022/01/16 12:12:16;;;;;;;95.20;42.23;;;5.90;99.90;;;;;;5113376;28;20015;-72
2022/01/16 12:14:52;;;;;;;107.47;47.10;;;5.90;99.90;;;;;;5113560;28;20026;-77
2022/01/16 12:17:40;;;;;;;100.53;44.60;;;5.90;99.90;;;;;;5113622;28;20042;-77
2022/01/16 12:20:13;;;;;;;105.17;43.83;;;5.90;99.90;;;;;;5112839;28;20028;-78
2022/01/16 12:22:42;;;;;;;106.33;42.97;;;5.90;99.90;;;;;;5113956;28;20103;-79
2022/01/16 12:25:33;;;;;;;106.17;43.97;;;5.90;99.90;;;;;;5113512;28;20030;-77
2022/01/16 12:28:16;;;;;;;94.50;39.70;;;6.00;99.90;;;;;;5110107;28;20103;-77
2022/01/16 12:30:55;;;;;;;95.67;41.57;;;6.00;99.90;;;;;;5113528;28;20032;-77
2022/01/16 12:33:25;;;;;;;100.67;42.97;;;6.10;99.90;;;;;;5112249;28;20020;-76
2022/01/16 12:35:51;;;;;;;108.13;44.57;;;6.10;99.90;;;;;;5113811;28;20027;-77
2022/01/16 12:38:18;;;;;;;100.20;42.73;;;6.10;99.90;;;;;;5113550;28;20479;-77
2022/01/16 12:40:47;;;;;;;103.80;43.70;;;6.10;99.90;;;;;;5112107;28;20028;-77
2022/01/16 12:43:25;;;;;;;103.77;44.93;;;6.10;99.90;;;;;;5113462;28;20108;-76
2022/01/16 12:45:51;;;;;;;106.17;47.03;;;6.10;99.90;;;;;;5112511;28;20099;-77
2022/01/16 12:48:17;;;;;;;101.57;43.13;;;6.10;99.90;;;;;;5112232;28;20505;-77
2022/01/16 12:50:42;;;;;;;103.03;44.50;;;6.10;99.90;;;;;;5112617;28;20093;-76
2022/01/16 12:53:08;;;;;;;104.23;44.07;;;6.10;99.90;;;;;;5114421;28;20097;-76
2022/01/16 12:55:34;;;;;;;90.40;38.23;;;6.20;99.90;;;;;;5115575;28;20058;-77
2022/01/16 12:58:16;;;;;;;102.23;44.57;;;6.20;99.90;;;;;;5116958;28;20475;-77
2022/01/16 13:01:01;;;;;;;105.13;44.40;;;6.30;99.90;;;;;;5116167;28;20039;-77
2022/01/16 13:03:27;;;;;;;93.47;42.43;;;6.20;99.90;;;;;;5115946;28;20388;-77
2022/01/16 13:06:13;;;;;;;101.60;42.13;;;6.30;99.90;;;;;;5116344;28;20035;-72
2022/01/16 13:08:56;;;;;;;104.70;46.43;;;6.40;99.90;;;;;;5115579;28;20042;-73
2022/01/16 13:11:23;;;;;;;105.63;43.77;;;6.40;99.90;;;;;;5113876;28;20028;-73
2022/01/16 13:13:50;;;;;;;97.33;43.87;;;6.40;99.90;;;;;;5116730;28;20357;-72
2022/01/16 13:16:34;;;;;;;96.27;43.63;;;6.50;99.90;;;;;;5116676;28;20035;-73
2022/01/16 13:19:12;;;;;;;98.53;45.60;;;6.60;99.90;;;;;;5114631;28;20080;-73
2022/01/16 13:21:58;;;;;;;109.60;48.90;;;6.60;99.90;;;;;;5102335;28;20150;-73
2022/01/16 13:24:23;;;;;;;103.03;45.70;;;6.60;99.90;;;;;;5111523;28;20027;-78
2022/01/16 13:26:49;;;;;;;108.80;47.27;;;6.70;99.90;;;;;;5107928;28;20036;-74
2022/01/16 13:29:18;;;;;;;108.80;48.37;;;6.70;99.90;;;;;;5113161;28;20028;-74
2022/01/16 13:31:44;;;;;;;118.70;50.13;;;6.70;99.90;;;;;;5114568;28;20024;-73
2022/01/16 13:34:14;;;;;;;102.90;46.87;;;6.70;99.90;;;;;;5115259;28;20030;-73
2022/01/16 13:36:53;;;;;;;109.67;47.80;;;6.70;99.90;;;;;;5116449;28;20031;-73